Oshoto, Wyoming
Current Conditions -  °F | °C
As of 7:55 PM on Monday 20 Oct 2014 (Local Time) from KW43 Reporting Station
Clear Clear  
Wind Chill: 63°   Ceiling: Unl
Heat Index: 63°   Visibility: 10mi
Dew Point: 34°   Wind: 3mph
Humidity: 34%   Direction: 160°SSE
Pressure: 29.93"   Gusts: NA
Location:  44.3253°N, 104.815°W
Report Text: KW43 210155Z AUTO 16003KT 10SM CLR 17/01 A2993 RMK AO2
Loading
Personal Weather Stations






























Interactive Weather Map
Tropical Storm Tracking
New forecast layout! Learn more

10-Day Weather Forecast

Advertisements
Track Severe Weather on mobile